Portada
METAR-TAF:

METAR-TAF

Aeroports :

Mahajanga, Madagascar

latitud: 15-40S, longitud: 046-21E, altitud: 26 m

Observació

L'informe es va fer fa 48 minuts, a les 07:00 UTC
Vent 10 kt del Est, variant entre Est/Nord-Est i Sud-Est
Temperatura 31°C
Humitat 52%
Pressió 1012 hPa
Visibilitat 10 km o més
Escasses núvols a una alçada de 2300 ft

METAR: FMNM 080700Z 10010KT 060V140 9999 FEW023 31/20 Q1012 NOSIG

Hora: 10:48 (07:48 UTC)

Pronòstic

L'informe es va fer fa 2 hores i 48 minuts, a les 05:00 UTC
Pronòstic vàlid del 08 a les 06 UTC al 09 a les 06 UTC
Vent 12 kt del Est/Sud-Est
Visibilitat 10 km o més
Escasses núvols a una alçada de 2000 ft
Evolucionant progressivament
l' 08 a les 10 UTC al 08 a les 12 UTC
Vent 10 kt del Oest
Evolucionant progressivament
l' 08 a les 20 UTC al 08 a les 22 UTC
Vent 6 kt del Est/Sud-Est

TAF: FMNM 080500Z 0806/0906 12012KT 9999 FEW020 BECMG 0810/0812 28010KT BECMG 0820/0822 12006KT

Observacions i pronòstics meteorològics de més de 4000 aeroports (METAR i TAF).

Les estacions disponibles són els punts grocs i vermells al mapa.

Posi el ratolí al punt desitjat per veure el nom de l'estació.

Feu clic per veure les observacions i els pronòstics meteorològics.

Per canviar el mapa: feu clic els botons verds amb una creu de color negre per apropar; al botó verd amb un guió per allunyar la imatge; o en les fletxes verdes per a mapes adjacents.


METAR-TAF: